createdAt,value
2022-12-15T00:02:26.800Z,93.26
2022-12-15T00:05:12.817Z,93.33
2022-12-15T00:07:58.709Z,93.77
2022-12-15T00:10:44.361Z,93.71
2022-12-15T00:13:32.016Z,93.87
2022-12-15T00:16:19.077Z,94.12
2022-12-15T00:19:04.800Z,94.11
2022-12-15T00:21:53.284Z,94.47
2022-12-15T00:24:39.433Z,94.85
2022-12-15T00:27:25.731Z,95.41
2022-12-15T00:30:11.334Z,96.08
2022-12-15T00:32:56.944Z,96.45
2022-12-15T00:35:43.446Z,96.81
2022-12-15T00:38:32.681Z,96.58
2022-12-15T00:41:00.402Z,96.56
2022-12-15T00:43:29.832Z,96.63
2022-12-15T00:46:15.841Z,96.89
2022-12-15T00:48:43.729Z,96.76
2022-12-15T00:51:11.770Z,96.53
2022-12-15T00:53:57.260Z,96.10
2022-12-15T00:56:43.845Z,95.85
2022-12-15T00:59:30.484Z,95.90
2022-12-15T01:02:16.605Z,96.02
2022-12-15T01:05:02.284Z,95.60
2022-12-15T01:07:49.583Z,95.69
2022-12-15T01:10:37.237Z,95.71
2022-12-15T01:13:23.413Z,95.81
2022-12-15T01:16:08.964Z,95.97
2022-12-15T01:18:54.866Z,96.07
2022-12-15T01:21:25.034Z,96.29
2022-12-15T01:23:53.374Z,96.25
2022-12-15T01:26:20.579Z,96.32
2022-12-15T01:28:47.585Z,96.38
2022-12-15T01:31:14.894Z,96.37
2022-12-15T01:33:43.680Z,96.26
2022-12-15T01:36:11.770Z,96.25
2022-12-15T01:38:39.099Z,95.94
2022-12-15T01:41:10.104Z,96.21
2022-12-15T01:43:39.426Z,95.89
2022-12-15T01:46:11.150Z,95.76
2022-12-15T01:48:54.720Z,96.11
2022-12-15T01:51:30.739Z,96.15
2022-12-15T01:54:01.603Z,96.01
2022-12-15T01:56:37.364Z,96.24
2022-12-15T01:59:09.245Z,96.14
2022-12-15T02:01:36.692Z,96.47
2022-12-15T02:04:04.344Z,96.46
2022-12-15T02:06:31.319Z,96.62
2022-12-15T02:09:00.755Z,96.42
2022-12-15T02:11:36.810Z,96.77
2022-12-15T02:14:06.724Z,96.82
2022-12-15T02:16:39.737Z,96.67
2022-12-15T02:19:42.042Z,96.75
2022-12-15T02:22:32.218Z,96.89
2022-12-15T02:25:40.633Z,97.34
2022-12-15T02:28:25.563Z,97.41
2022-12-15T02:31:22.769Z,97.10
2022-12-15T02:33:55.048Z,96.98
2022-12-15T02:36:38.918Z,96.52
2022-12-15T02:39:06.333Z,96.48
2022-12-15T02:41:39.070Z,96.53
2022-12-15T02:44:22.682Z,96.17
2022-12-15T02:47:01.726Z,96.30
2022-12-15T02:50:23.920Z,96.19
2022-12-15T02:53:08.289Z,96.29
2022-12-15T02:55:41.292Z,96.22
2022-12-15T02:58:39.610Z,96.09
2022-12-15T03:01:26.374Z,96.10
2022-12-15T03:03:55.946Z,95.85
2022-12-15T03:06:25.217Z,95.98
2022-12-15T03:08:52.393Z,95.81
2022-12-15T03:11:19.247Z,95.99
2022-12-15T03:13:46.824Z,95.98
2022-12-15T03:16:17.225Z,95.63
2022-12-15T03:18:44.197Z,95.88
2022-12-15T03:21:11.261Z,96.09
2022-12-15T03:23:38.627Z,96.29
2022-12-15T03:26:06.761Z,96.15
2022-12-15T03:28:34.084Z,96.14
2022-12-15T03:31:01.073Z,96.21
2022-12-15T03:33:28.459Z,96.52
2022-12-15T03:35:56.335Z,96.51
2022-12-15T03:38:23.375Z,96.18
2022-12-15T03:40:50.416Z,96.41
2022-12-15T03:43:17.417Z,96.58
2022-12-15T03:45:44.846Z,96.93
2022-12-15T03:48:12.112Z,96.91
2022-12-15T03:50:39.079Z,96.98
2022-12-15T03:53:06.301Z,97.36
2022-12-15T03:55:35.235Z,97.76
2022-12-15T03:58:02.874Z,98.11
2022-12-15T04:00:30.244Z,98.19
2022-12-15T04:02:57.535Z,98.33
2022-12-15T04:05:33.199Z,98.30
2022-12-15T04:08:01.945Z,98.71
2022-12-15T04:10:34.383Z,99.16
2022-12-15T04:13:11.297Z,99.02
2022-12-15T04:15:40.132Z,99.24
2022-12-15T04:18:14.056Z,99.19
2022-12-15T04:20:41.421Z,99.40
2022-12-15T04:23:08.757Z,99.29
2022-12-15T04:25:55.522Z,99.52
2022-12-15T04:28:43.771Z,99.13
2022-12-15T04:31:33.878Z,98.62
2022-12-15T04:34:22.704Z,98.46
2022-12-15T04:37:11.378Z,98.05
2022-12-15T04:40:04.841Z,97.64
2022-12-15T04:42:52.261Z,97.30
2022-12-15T04:45:40.107Z,97.12
2022-12-15T04:48:25.763Z,96.74
2022-12-15T04:51:11.427Z,96.39
2022-12-15T04:53:56.935Z,96.00
2022-12-15T04:56:42.369Z,96.02
2022-12-15T04:59:27.906Z,95.86
2022-12-15T05:02:13.785Z,95.53
2022-12-15T05:04:59.519Z,95.47
2022-12-15T05:07:45.814Z,95.58
2022-12-15T05:10:31.592Z,95.71
2022-12-15T05:13:28.491Z,95.58
2022-12-15T05:16:15.397Z,95.89
2022-12-15T05:19:01.140Z,95.90
2022-12-15T05:21:47.026Z,96.03
2022-12-15T05:24:34.859Z,96.22
2022-12-15T05:27:20.410Z,96.32
2022-12-15T05:30:06.001Z,96.37
2022-12-15T05:32:33.462Z,96.85
2022-12-15T05:35:01.518Z,96.44
2022-12-15T05:37:30.348Z,96.75
2022-12-15T05:39:57.403Z,96.56
2022-12-15T05:42:24.356Z,96.71
2022-12-15T05:44:51.422Z,96.80
2022-12-15T05:47:18.652Z,96.08
2022-12-15T05:49:45.599Z,96.27
2022-12-15T05:52:12.789Z,96.84
2022-12-15T05:54:39.783Z,96.98
2022-12-15T05:57:06.929Z,97.35
2022-12-15T05:59:34.068Z,97.75
2022-12-15T06:02:01.192Z,97.52
2022-12-15T06:04:28.653Z,97.74
2022-12-15T06:07:14.627Z,98.19
2022-12-15T06:09:41.616Z,98.48
2022-12-15T06:12:08.501Z,98.50
2022-12-15T06:14:36.741Z,98.93
2022-12-15T06:17:04.490Z,99.15
2022-12-15T06:19:31.860Z,98.92
2022-12-15T06:21:58.910Z,98.54
2022-12-15T06:24:26.153Z,98.77
2022-12-15T06:26:53.366Z,98.36
2022-12-15T06:29:20.420Z,98.64
2022-12-15T06:31:48.016Z,99.09
2022-12-15T06:34:17.023Z,99.00
2022-12-15T06:36:44.565Z,98.98
2022-12-15T06:39:13.978Z,97.83
2022-12-15T06:41:42.219Z,97.89
2022-12-15T06:44:13.439Z,98.25
2022-12-15T06:46:40.428Z,97.88
2022-12-15T06:49:09.083Z,97.85
2022-12-15T06:51:36.675Z,97.32
2022-12-15T06:54:03.723Z,96.93
2022-12-15T06:56:34.580Z,96.60
2022-12-15T06:59:03.960Z,95.60
2022-12-15T07:01:31.870Z,95.31
2022-12-15T07:04:03.232Z,94.79
2022-12-15T07:06:37.613Z,94.31
2022-12-15T07:09:08.565Z,93.82
2022-12-15T07:11:36.184Z,93.37
2022-12-15T07:14:03.409Z,93.21
2022-12-15T07:16:31.096Z,92.80
2022-12-15T07:18:58.896Z,92.61
2022-12-15T07:21:26.329Z,93.01
2022-12-15T07:23:55.921Z,93.01
2022-12-15T07:26:24.682Z,92.82
2022-12-15T07:28:54.222Z,92.58
2022-12-15T07:31:23.131Z,92.36
2022-12-15T07:33:52.908Z,91.93
2022-12-15T07:36:20.509Z,91.87
2022-12-15T07:38:50.323Z,91.89
2022-12-15T07:41:19.532Z,91.86
2022-12-15T07:43:48.043Z,91.91
2022-12-15T07:46:15.891Z,91.76
2022-12-15T07:48:43.095Z,91.31
2022-12-15T07:51:18.793Z,90.80
2022-12-15T07:53:49.646Z,90.06
2022-12-15T07:56:19.185Z,89.92
2022-12-15T07:58:46.658Z,89.28
2022-12-15T08:01:15.565Z,88.69
2022-12-15T08:03:42.928Z,88.96
2022-12-15T08:06:13.329Z,88.79
2022-12-15T08:08:41.039Z,88.71
2022-12-15T08:11:10.644Z,88.11
2022-12-15T08:14:01.872Z,87.96
2022-12-15T08:16:26.160Z,87.82
2022-12-15T08:18:53.941Z,87.59
2022-12-15T08:21:21.202Z,87.50
2022-12-15T08:23:51.170Z,87.91
2022-12-15T08:26:19.559Z,88.29
2022-12-15T08:28:47.237Z,87.90
2022-12-15T08:31:17.582Z,87.37
2022-12-15T08:33:45.621Z,87.25
2022-12-15T08:36:14.466Z,87.17
2022-12-15T08:38:43.181Z,86.93
2022-12-15T08:41:11.745Z,87.18
2022-12-15T08:43:45.800Z,87.02
2022-12-15T08:46:16.056Z,86.83
2022-12-15T08:48:43.337Z,86.88
2022-12-15T08:51:10.724Z,86.31
2022-12-15T08:53:38.913Z,86.05
2022-12-15T08:56:09.020Z,86.56
2022-12-15T08:58:36.417Z,86.12
2022-12-15T09:01:09.131Z,86.90
2022-12-15T09:03:37.136Z,86.94
2022-12-15T09:06:11.789Z,87.06
2022-12-15T09:08:39.061Z,87.32
2022-12-15T09:11:06.405Z,86.97
2022-12-15T09:13:33.974Z,86.49
2022-12-15T09:16:13.354Z,86.37
2022-12-15T09:18:46.145Z,86.99
2022-12-15T09:21:15.011Z,87.11
2022-12-15T09:23:43.281Z,87.28
2022-12-15T09:26:15.294Z,87.13
2022-12-15T09:28:43.311Z,85.57
2022-12-15T09:31:15.431Z,85.63
2022-12-15T09:33:43.908Z,84.93
2022-12-15T09:36:13.320Z,85.51
2022-12-15T09:38:41.432Z,85.24
2022-12-15T09:41:13.684Z,85.41
2022-12-15T09:44:05.425Z,85.58
2022-12-15T09:47:11.523Z,85.13
2022-12-15T09:49:51.378Z,85.17
2022-12-15T09:52:23.764Z,85.14
2022-12-15T09:54:51.551Z,85.54
2022-12-15T09:57:26.251Z,85.81
2022-12-15T10:00:21.004Z,85.22
2022-12-15T10:02:54.176Z,84.24
2022-12-15T10:06:07.046Z,84.74
2022-12-15T10:08:31.088Z,85.14
2022-12-15T10:11:16.215Z,84.76
2022-12-15T10:14:27.331Z,84.92
2022-12-15T10:17:25.373Z,84.05
2022-12-15T10:20:02.504Z,83.79
2022-12-15T10:22:39.140Z,84.07
2022-12-15T10:25:27.459Z,84.06
2022-12-15T10:28:24.963Z,83.18
2022-12-15T10:31:05.383Z,82.06
2022-12-15T10:33:39.700Z,82.15
2022-12-15T10:36:15.445Z,81.27
2022-12-15T10:38:50.537Z,81.16
2022-12-15T10:41:22.360Z,81.10
2022-12-15T10:43:54.664Z,81.12
2022-12-15T10:46:28.015Z,80.31
2022-12-15T10:49:07.512Z,80.66
2022-12-15T10:51:44.240Z,81.29
2022-12-15T10:54:14.146Z,80.68
2022-12-15T10:56:59.101Z,79.92
2022-12-15T10:59:31.999Z,79.58
2022-12-15T11:02:23.016Z,79.91
2022-12-15T11:04:58.354Z,80.42
2022-12-15T11:07:53.581Z,80.28
2022-12-15T11:10:50.046Z,79.21
2022-12-15T11:13:22.646Z,78.98
2022-12-15T11:15:55.088Z,79.37
2022-12-15T11:18:46.322Z,78.99
2022-12-15T11:21:30.765Z,78.96
2022-12-15T11:24:38.928Z,78.76
2022-12-15T11:27:14.327Z,78.97
2022-12-15T11:30:02.936Z,78.93
2022-12-15T11:32:35.345Z,79.05
2022-12-15T11:35:02.915Z,79.09
2022-12-15T11:37:44.423Z,78.79
2022-12-15T11:40:21.533Z,78.83
2022-12-15T11:42:54.852Z,78.72
2022-12-15T11:45:35.548Z,78.29
2022-12-15T11:48:13.833Z,78.55
2022-12-15T11:51:05.880Z,78.28
2022-12-15T11:54:17.247Z,78.16
2022-12-15T11:57:02.358Z,78.69
2022-12-15T11:59:56.968Z,78.69
2022-12-15T12:02:48.652Z,79.61
2022-12-15T12:05:40.429Z,80.27
2022-12-15T12:08:26.032Z,80.59
2022-12-15T12:10:59.055Z,80.01
2022-12-15T12:13:40.654Z,79.65
2022-12-15T12:16:32.773Z,79.26
2022-12-15T12:19:10.073Z,79.49
2022-12-15T12:21:41.084Z,79.32
2022-12-15T12:24:25.066Z,79.20
2022-12-15T12:27:34.025Z,79.40
2022-12-15T12:30:06.923Z,79.32
2022-12-15T12:32:43.788Z,79.50
2022-12-15T12:35:33.504Z,79.63
2022-12-15T12:38:03.857Z,80.47
2022-12-15T12:40:40.907Z,80.99
2022-12-15T12:43:14.089Z,80.99
2022-12-15T12:45:54.316Z,81.05
2022-12-15T12:49:00.356Z,81.17
2022-12-15T12:51:36.866Z,81.07
2022-12-15T12:54:33.930Z,80.94
2022-12-15T12:57:02.512Z,81.15
2022-12-15T12:59:29.372Z,81.53
2022-12-15T13:01:58.554Z,82.12
2022-12-15T13:04:28.672Z,82.08
2022-12-15T13:06:55.439Z,82.25
2022-12-15T13:09:25.314Z,82.33
2022-12-15T13:11:52.316Z,82.83
2022-12-15T13:14:46.672Z,82.65
2022-12-15T13:17:32.649Z,82.28
2022-12-15T13:20:02.776Z,82.73
2022-12-15T13:22:36.535Z,82.75
2022-12-15T13:25:41.927Z,82.83
2022-12-15T13:28:28.263Z,82.71
2022-12-15T13:31:27.717Z,82.40
2022-12-15T13:34:12.968Z,82.31
2022-12-15T13:36:39.952Z,82.79
2022-12-15T13:39:13.246Z,83.14
2022-12-15T13:42:07.472Z,83.22
2022-12-15T13:44:38.161Z,83.13
2022-12-15T13:47:16.607Z,83.16
2022-12-15T13:50:01.377Z,83.14
2022-12-15T13:55:51.563Z,83.53
2022-12-15T13:58:21.382Z,83.85
2022-12-15T14:00:52.029Z,83.67
2022-12-15T14:03:19.047Z,83.68
2022-12-15T14:05:52.369Z,84.27
2022-12-15T14:08:22.072Z,84.36
2022-12-15T14:11:50.907Z,84.88
2022-12-15T14:14:23.512Z,84.94
2022-12-15T14:16:58.844Z,85.08
2022-12-15T14:19:27.502Z,85.08
2022-12-15T14:21:59.482Z,85.15
2022-12-15T14:27:29.588Z,85.15
2022-12-15T14:30:12.786Z,85.37
2022-12-15T14:32:42.743Z,85.28
2022-12-15T14:35:26.238Z,85.19
2022-12-15T14:37:55.928Z,84.94
2022-12-15T14:40:28.379Z,85.18
2022-12-15T14:42:56.962Z,85.40
2022-12-15T14:45:27.513Z,85.65
2022-12-15T14:48:30.408Z,85.86
2022-12-15T14:50:47.889Z,86.25
2022-12-15T14:53:17.933Z,85.98
2022-12-15T14:55:45.591Z,86.47
2022-12-15T14:58:29.732Z,86.87
2022-12-15T15:00:57.549Z,86.40
2022-12-15T15:03:10.518Z,85.08
2022-12-15T15:03:35.362Z,86.95
2022-12-15T15:06:12.130Z,87.04
2022-12-15T15:08:50.908Z,86.64
2022-12-15T15:11:21.222Z,86.59
2022-12-15T15:13:48.475Z,86.82
2022-12-15T15:16:17.482Z,87.03
2022-12-15T15:18:49.361Z,86.82
2022-12-15T15:21:26.462Z,86.82
2022-12-15T15:24:00.011Z,86.96
2022-12-15T15:26:28.546Z,87.07
2022-12-15T15:28:55.951Z,86.82
2022-12-15T15:31:23.045Z,86.77
2022-12-15T15:33:50.833Z,86.93
2022-12-15T15:36:17.919Z,87.24
2022-12-15T15:38:46.882Z,87.76
2022-12-15T15:41:18.112Z,88.27
2022-12-15T15:43:46.112Z,89.53
2022-12-15T15:46:22.227Z,89.47
2022-12-15T15:48:50.638Z,90.01
2022-12-15T15:51:18.624Z,91.27
2022-12-15T15:53:46.872Z,91.32
2022-12-15T15:56:16.693Z,91.15
2022-12-15T15:58:44.484Z,90.89
2022-12-15T16:01:13.637Z,90.89
2022-12-15T16:03:41.443Z,91.19
2022-12-15T16:06:17.382Z,91.47
2022-12-15T16:08:45.583Z,91.76
2022-12-15T16:11:12.874Z,91.61
2022-12-15T16:13:40.083Z,91.51
2022-12-15T16:16:15.230Z,91.80
2022-12-15T16:18:42.848Z,91.94
2022-12-15T16:21:14.159Z,92.06
2022-12-15T16:23:44.128Z,91.95
2022-12-15T16:26:17.049Z,91.93
2022-12-15T16:28:44.358Z,92.03
2022-12-15T16:31:24.715Z,92.21
2022-12-15T16:33:52.142Z,92.09
2022-12-15T16:36:19.244Z,92.06
2022-12-15T16:38:46.316Z,91.83
2022-12-15T16:41:17.235Z,91.88
2022-12-15T16:43:48.251Z,91.90
2022-12-15T16:46:16.157Z,92.07
2022-12-15T16:48:45.649Z,91.94
2022-12-15T16:51:48.200Z,92.18
2022-12-15T16:54:27.035Z,92.25
2022-12-15T16:56:56.996Z,92.34
2022-12-15T16:59:36.274Z,92.29
2022-12-15T17:02:19.922Z,92.30
2022-12-15T17:04:47.460Z,92.64
2022-12-15T17:07:20.012Z,92.58
2022-12-15T17:09:50.074Z,92.67
2022-12-15T17:12:18.113Z,92.47
2022-12-15T17:14:46.044Z,92.35
2022-12-15T17:17:18.723Z,92.03
2022-12-15T17:20:19.947Z,92.03
2022-12-15T17:22:36.267Z,92.20
2022-12-15T17:25:03.316Z,91.95
2022-12-15T17:27:31.666Z,92.31
2022-12-15T17:30:00.870Z,92.31
2022-12-15T17:32:28.092Z,92.60
2022-12-15T17:34:55.105Z,92.55
2022-12-15T17:37:26.186Z,92.70
2022-12-15T17:39:56.558Z,92.79
2022-12-15T17:42:23.609Z,93.05
2022-12-15T17:44:51.869Z,92.70
2022-12-15T17:47:19.167Z,92.92
2022-12-15T17:49:47.382Z,93.73
2022-12-15T17:52:35.053Z,93.54
2022-12-15T17:55:04.413Z,93.46
2022-12-15T17:57:32.271Z,93.43
2022-12-15T18:00:02.815Z,93.36
2022-12-15T18:02:33.100Z,93.69
2022-12-15T18:05:00.252Z,93.51
2022-12-15T18:07:28.118Z,93.31
2022-12-15T18:09:55.537Z,93.58
2022-12-15T18:12:27.953Z,93.61
2022-12-15T18:14:56.980Z,93.72
2022-12-15T18:17:24.501Z,93.57
2022-12-15T18:19:51.743Z,93.65
2022-12-15T18:22:24.101Z,93.95
2022-12-15T18:24:53.495Z,93.62
2022-12-15T18:27:29.614Z,93.88
2022-12-15T18:29:57.191Z,93.79
2022-12-15T18:32:26.688Z,94.04
2022-12-15T18:34:54.864Z,93.69
2022-12-15T18:37:24.862Z,93.70
2022-12-15T18:39:52.708Z,93.68
2022-12-15T18:42:21.597Z,93.55
2022-12-15T18:44:53.601Z,93.63
2022-12-15T18:47:23.506Z,93.95
2022-12-15T18:49:51.786Z,94.23
2022-12-15T18:52:24.494Z,94.63
2022-12-15T18:54:54.213Z,95.07
2022-12-15T18:57:30.847Z,95.49
2022-12-15T19:00:17.416Z,95.94
2022-12-15T19:02:44.507Z,96.06
2022-12-15T19:05:27.711Z,96.33
2022-12-15T19:08:00.814Z,96.31
2022-12-15T19:10:30.351Z,96.08
2022-12-15T19:12:58.805Z,96.03
2022-12-15T19:15:26.149Z,95.81
2022-12-15T19:18:11.816Z,96.04
2022-12-15T19:20:59.459Z,96.04
2022-12-15T19:23:26.546Z,96.10
2022-12-15T19:25:54.587Z,96.01
2022-12-15T19:28:23.439Z,95.87
2022-12-15T19:30:52.225Z,95.86
2022-12-15T19:33:20.084Z,95.82
2022-12-15T19:35:51.145Z,96.53
2022-12-15T19:38:25.654Z,96.14
2022-12-15T19:40:54.640Z,95.98
2022-12-15T19:43:24.205Z,96.15
2022-12-15T19:45:52.239Z,96.38
2022-12-15T19:48:23.340Z,96.23
2022-12-15T19:50:52.185Z,96.18
2022-12-15T19:53:25.921Z,96.30
2022-12-15T19:55:55.591Z,96.07
2022-12-15T19:58:33.071Z,96.35
2022-12-15T20:01:06.966Z,96.10
2022-12-15T20:03:34.962Z,96.09
2022-12-15T20:06:03.879Z,96.40
2022-12-15T20:08:36.923Z,96.31
2022-12-15T20:11:05.177Z,96.09
2022-12-15T20:13:32.656Z,96.60
2022-12-15T20:15:59.849Z,96.88
2022-12-15T20:18:27.071Z,96.79
2022-12-15T20:20:54.312Z,96.97
2022-12-15T20:23:29.534Z,97.41
2022-12-15T20:25:57.329Z,97.42
2022-12-15T20:28:29.927Z,97.51
2022-12-15T20:30:57.428Z,97.57
2022-12-15T20:33:24.917Z,97.98
2022-12-15T20:35:52.787Z,97.88
2022-12-15T20:38:25.383Z,97.79
2022-12-15T20:40:53.090Z,97.67
2022-12-15T20:43:22.350Z,97.83
2022-12-15T20:45:56.406Z,97.99
2022-12-15T20:48:25.692Z,97.64
2022-12-15T20:50:53.439Z,97.56
2022-12-15T20:53:24.263Z,97.66
2022-12-15T20:55:53.296Z,97.21
2022-12-15T20:58:21.302Z,97.76
2022-12-15T21:00:51.755Z,98.18
2022-12-15T21:03:30.314Z,98.44
2022-12-15T21:05:58.859Z,98.88
2022-12-15T21:08:29.692Z,99.40
2022-12-15T21:11:02.767Z,99.50
2022-12-15T21:13:33.047Z,100.00
2022-12-15T21:16:00.736Z,99.95
2022-12-15T21:21:20.942Z,100.00
2022-12-15T21:23:49.009Z,100.00
2022-12-15T21:26:22.084Z,100.00
2022-12-15T21:28:50.342Z,100.00
2022-12-15T21:31:19.101Z,100.00
2022-12-15T21:33:46.716Z,100.00
2022-12-15T21:36:15.726Z,100.00
2022-12-15T21:38:46.643Z,100.00
2022-12-15T21:41:16.791Z,100.00
2022-12-15T21:43:43.888Z,99.97
2022-12-15T21:46:31.137Z,100.00
2022-12-15T21:49:18.648Z,99.14
2022-12-15T21:51:57.599Z,99.18
2022-12-15T21:54:30.928Z,99.01
2022-12-15T21:56:59.742Z,98.71
2022-12-15T21:59:29.608Z,98.77
2022-12-15T22:01:59.274Z,98.43
2022-12-15T22:04:34.959Z,98.42
2022-12-15T22:07:02.584Z,98.27
2022-12-15T22:09:29.529Z,98.55
2022-12-15T22:11:57.083Z,98.69
2022-12-15T22:14:28.195Z,98.66
2022-12-15T22:16:55.771Z,98.41
2022-12-15T22:19:23.614Z,98.17
2022-12-15T22:21:51.135Z,97.90
2022-12-15T22:24:20.927Z,97.61
2022-12-15T22:26:48.047Z,97.64
2022-12-15T22:29:18.855Z,97.34
2022-12-15T22:31:46.949Z,97.49
2022-12-15T22:34:19.621Z,97.49
2022-12-15T22:36:46.786Z,97.19
2022-12-15T22:39:15.024Z,97.07
2022-12-15T22:41:47.846Z,96.73
2022-12-15T22:44:27.704Z,96.94
2022-12-15T22:46:56.986Z,96.65
2022-12-15T22:49:30.557Z,96.81
2022-12-15T22:51:58.172Z,96.67
2022-12-15T22:54:27.654Z,96.93
2022-12-15T22:57:05.545Z,97.27
2022-12-15T22:59:36.196Z,97.33
2022-12-15T23:02:03.715Z,97.79
2022-12-15T23:04:32.264Z,97.83
2022-12-15T23:07:05.103Z,97.81
2022-12-15T23:09:32.169Z,98.20
2022-12-15T23:12:01.924Z,98.10
2022-12-15T23:14:47.766Z,98.04
2022-12-15T23:17:14.978Z,97.93
2022-12-15T23:19:46.130Z,97.64
2022-12-15T23:22:13.946Z,97.45
2022-12-15T23:24:41.096Z,97.60
2022-12-15T23:27:11.930Z,97.87
2022-12-15T23:29:47.979Z,97.79
2022-12-15T23:32:15.273Z,97.49
2022-12-15T23:34:42.478Z,97.15
2022-12-15T23:37:09.888Z,97.05
2022-12-15T23:39:37.055Z,96.83
2022-12-15T23:42:05.674Z,96.62
2022-12-15T23:44:32.621Z,96.46
2022-12-15T23:46:59.942Z,96.66
2022-12-15T23:49:27.014Z,96.61
2022-12-15T23:51:54.068Z,96.50
2022-12-15T23:54:22.376Z,96.20
2022-12-15T23:56:49.429Z,96.48
2022-12-15T23:59:18.697Z,96.37
